Addy, WA (99101)

6:59 AM PDT on September 30, 2014 (GMT -0700)
Deer Park | Change Station
CLOSE
Current Station
Airport
Location: Deer Park,
Elevation: 2205 ft
Nearby Weather Stations

Elev 2205 ft 47.97 °N, 117.42 °W | Updated 56 minutes ago

Overcast
Overcast
49 °F
Feels Like 49 °F
N
12
Wind Variable Wind from SE

Today
High -- | Low -- °F
--% Chance of Precip.
Yesterday
High -- | Low -- °F
Precip. -- in
6:49 AM 6:32 PM
Waxing Crescent, 37% visible
Pressure 29.80 in
Visibility 4.0 miles
Clouds Mostly Cloudy 4300 ft
Overcast 5500 ft
Dew Point 45 °F
Humidity 86%
Rainfall 0.11 in
Snow Depth 1 in , 0 in , 0 in
UV 0 out of 12
Pollen 4.90 out of 12
PM2.5 Good
Flu Activity Not available.
SPECI KDEW 301303Z AUTO 14010KT 4SM RA BR BKN043 OVC055 09/07 A2980 RMK AO2 P0002 T00940072

More Conditions Fewer Conditions

Pressure 29.80 in
Visibility 4.0 miles
Clouds Mostly Cloudy 4300 ft
Overcast 5500 ft
Dew Point 45 °F
Humidity 86%
Rainfall 0.11 in
Snow Depth 1 in , 0 in , 0 in
UV 0 out of 12
Pollen 4.90 out of 12
PM2.5 Good
Flu Activity Not available.
SPECI KDEW 301303Z AUTO 14010KT 4SM RA BR BKN043 OVC055 09/07 A2980 RMK AO2 P0002 T00940072

More Conditions Fewer Conditions

10-Day Weather Forecast

Almanac

Astronomy

Sep. 30, 2014 Rise Set
Actual Time 6:49 AM PDT 6:32 PM PDT
Civil Twilight 6:18 AM PDT 7:03 PM PDT
Nautical Twilight 5:42 AM PDT 7:40 PM PDT
Astronomical Twilight 5:05 AM PDT 8:16 PM PDT
Moon 1:23 PM PDT 10:46 PM PDT
Length of Visible Light 12h 45m
Length of Day
11h 42m
Tomorrow will be 3m 31s shorter.
Waxing Crescent, 37% of the Moon is Illuminated
Today
Waxing Crescent
Oct 1
First Quarter
Oct 8
Full
Oct 15
Last Quarter
Oct 23
New

Today's Extremes

State Highs State Lows

Community

WunderPhotos

Upload Photos

1,757,636 photos uploaded!

Nearby

Air Quality

  Air Quality AQ Index Pollutant
Yesterday Good
PM10
Yesterday Good
OZONE
Current Good
PM2.5
Tuesday Good
PM10
Tuesday Good
OZONE

Snow Depth

Station Depth Elevation
Surprise Lakes 1 in 4250 ft
June Lake 0 in 3340 ft
Grouse Camp 0 in 5380 ft
Morse Lake 0 in 5400 ft
Wells Creek 0 in 4200 ft

Earthquake Activity

City Distance Mag. Time & Date
No recent earthquake activity has been reported nearby.
Minimum magnitude displayed is 2.5.

Coastal Water Temperatures

Place Temperature
No Stations Reporting

Nearby Weather Stations